Time;durP1;ratioP1;P1;durP2;ratioP2;P2;SDS_P1;SDS_P2;PMS_P1;PMS_P2;Temp;Humidity;BMP_temperature;BMP_pressure;BME280_temperature;BME280_humidity;BME280_pressure;Samples;Min_cycle;Max_cycle;Signal;HPM_P1;HPM_P2
2021/11/16 00:01:28;;;;;;;10.00;6.90;;;21.80;54.80;;;;;;5233084;28;20048;-53
2021/11/16 00:04:00;;;;;;;11.13;6.93;;;21.80;54.80;;;;;;5231877;28;20052;-56
2021/11/16 00:06:34;;;;;;;10.75;7.28;;;21.80;54.80;;;;;;5230389;28;20044;-51
2021/11/16 00:09:06;;;;;;;;;;;21.80;54.80;;;;;;5234263;28;20507;-53
2021/11/16 00:11:38;;;;;;;12.02;7.22;;;21.70;54.90;;;;;;5236842;28;19923;-50
2021/11/16 00:14:12;;;;;;;14.73;6.75;;;21.80;55.00;;;;;;5234708;28;20501;-51
2021/11/16 00:16:45;;;;;;;12.63;7.28;;;21.80;55.00;;;;;;5231102;28;20047;-58
2021/11/16 00:19:17;;;;;;;11.38;6.60;;;21.80;55.00;;;;;;5230236;28;20103;-56
2021/11/16 00:21:50;;;;;;;10.57;6.20;;;21.80;55.00;;;;;;5231154;28;20048;-50
2021/11/16 00:24:36;;;;;;;;;;;21.80;54.90;;;;;;5230423;28;21048;-50
2021/11/16 00:27:08;;;;;;;;;;;21.80;55.00;;;;;;5238744;28;19920;-52
2021/11/16 00:29:42;;;;;;;9.68;6.78;;;21.70;55.00;;;;;;5235428;28;19920;-53
2021/11/16 00:32:15;;;;;;;12.18;6.13;;;21.80;55.00;;;;;;5234403;28;21099;-48
2021/11/16 00:34:47;;;;;;;15.73;6.38;;;21.80;55.00;;;;;;5234223;28;20698;-52
2021/11/16 00:37:27;;;;;;;10.10;5.82;;;21.80;55.00;;;;;;5234848;28;20051;-50
2021/11/16 00:40:04;;;;;;;11.30;6.55;;;21.80;54.90;;;;;;5231128;28;20052;-55
2021/11/16 00:42:37;;;;;;;8.52;6.68;;;21.80;54.90;;;;;;5234021;28;20048;-54
2021/11/16 00:45:13;;;;;;;24.90;6.60;;;21.80;54.90;;;;;;5229170;28;20040;-50
2021/11/16 00:47:46;;;;;;;8.93;6.05;;;21.80;54.90;;;;;;5231213;28;20040;-53
2021/11/16 00:50:20;;;;;;;10.70;6.37;;;21.80;54.90;;;;;;5230555;28;20048;-51
2021/11/16 00:52:53;;;;;;;9.68;5.72;;;21.80;54.80;;;;;;5235067;28;20051;-58
2021/11/16 00:55:26;;;;;;;10.57;6.70;;;21.80;54.90;;;;;;5233000;28;20052;-56
2021/11/16 00:57:58;;;;;;;9.70;5.43;;;21.80;54.80;;;;;;5233692;28;20408;-54
2021/11/16 01:00:31;;;;;;;7.18;5.55;;;21.80;54.90;;;;;;5228725;28;20786;-56
2021/11/16 01:03:04;;;;;;;9.70;6.10;;;21.80;54.80;;;;;;5231032;28;20055;-55
2021/11/16 01:05:38;;;;;;;10.50;5.82;;;21.80;54.80;;;;;;5231196;28;20040;-54
2021/11/16 01:08:11;;;;;;;8.88;5.65;;;21.80;54.80;;;;;;5242356;28;20032;-56
2021/11/16 01:10:45;;;;;;;11.10;6.03;;;21.80;54.80;;;;;;5241153;28;20853;-59
2021/11/16 01:13:18;;;;;;;;;;;21.80;54.80;;;;;;5220401;28;20477;-57
2021/11/16 01:15:51;;;;;;;7.65;5.68;;;21.70;54.60;;;;;;5237636;28;19928;-54
2021/11/16 01:18:26;;;;;;;8.38;5.30;;;21.70;54.70;;;;;;5227403;28;21304;-52
2021/11/16 01:20:58;;;;;;;8.00;5.68;;;21.70;54.70;;;;;;5235300;28;20052;-57
2021/11/16 01:23:31;;;;;;;8.00;5.17;;;21.80;54.70;;;;;;5220613;28;20056;-49
2021/11/16 01:26:04;;;;;;;6.47;5.15;;;21.80;54.70;;;;;;5242340;28;20047;-54
2021/11/16 01:28:37;;;;;;;8.37;5.47;;;21.80;54.70;;;;;;5226381;28;20070;-53
2021/11/16 01:31:09;;;;;;;8.32;5.10;;;21.80;54.70;;;;;;5236756;28;20309;-52
2021/11/16 01:33:44;;;;;;;7.27;5.40;;;21.80;54.80;;;;;;5232338;28;20055;-54
2021/11/16 01:36:18;;;;;;;8.63;5.47;;;21.80;54.70;;;;;;5237403;28;20058;-52
2021/11/16 01:38:53;;;;;;;6.43;4.35;;;21.80;54.80;;;;;;5240078;28;20052;-57
2021/11/16 01:41:29;;;;;;;6.90;4.97;;;21.70;54.60;;;;;;5225405;28;20188;-56
2021/11/16 01:44:01;;;;;;;8.23;4.70;;;21.70;54.70;;;;;;5233395;28;20047;-51
2021/11/16 01:46:34;;;;;;;8.05;4.80;;;21.80;54.80;;;;;;5231456;28;20044;-51
2021/11/16 01:49:09;;;;;;;7.47;4.90;;;21.70;54.70;;;;;;5231106;28;20044;-53
2021/11/16 01:51:41;;;;;;;6.70;4.82;;;21.70;54.70;;;;;;5231680;28;20082;-51
2021/11/16 01:54:14;;;;;;;6.05;5.10;;;21.80;54.80;;;;;;5234774;28;20058;-51
2021/11/16 01:56:46;;;;;;;7.68;5.07;;;21.70;54.70;;;;;;5228629;28;20044;-55
2021/11/16 01:59:19;;;;;;;6.63;5.00;;;21.80;54.70;;;;;;5213258;28;20043;-55
2021/11/16 02:01:54;;;;;;;6.67;4.50;;;21.70;54.60;;;;;;5208748;28;20039;-57
2021/11/16 02:04:37;;;;;;;7.78;4.35;;;21.70;54.60;;;;;;5228819;28;20138;-55
2021/11/16 02:07:10;;;;;;;6.23;4.70;;;21.80;54.70;;;;;;5228207;28;20047;-50
2021/11/16 02:09:43;;;;;;;6.90;4.70;;;21.70;54.60;;;;;;5227041;28;20054;-55
2021/11/16 02:12:15;;;;;;;7.82;4.38;;;21.80;54.60;;;;;;5230223;28;20051;-50
2021/11/16 02:14:48;;;;;;;6.50;4.50;;;21.70;54.60;;;;;;5230778;28;20040;-54
2021/11/16 02:17:20;;;;;;;6.03;4.55;;;21.80;54.60;;;;;;5225625;28;20055;-52
2021/11/16 02:19:55;;;;;;;6.45;4.38;;;21.70;54.60;;;;;;5206361;28;20074;-51
2021/11/16 02:22:28;;;;;;;5.70;3.83;;;21.80;54.60;;;;;;5228141;28;20045;-54
2021/11/16 02:25:01;;;;;;;5.78;4.07;;;21.80;54.60;;;;;;5212023;28;20043;-52
2021/11/16 02:27:33;;;;;;;5.85;4.22;;;21.70;54.60;;;;;;5213295;28;20056;-53
2021/11/16 02:30:07;;;;;;;5.03;3.97;;;21.70;54.60;;;;;;5227169;28;20068;-54
2021/11/16 02:32:42;;;;;;;;;;;21.70;54.60;;;;;;5230869;28;20052;-57
2021/11/16 02:35:16;;;;;;;6.55;4.38;;;21.70;54.60;;;;;;5227688;28;19920;-49
2021/11/16 02:37:49;;;;;;;6.20;4.20;;;21.70;54.60;;;;;;5225063;28;20048;-54
2021/11/16 02:40:22;;;;;;;6.30;4.65;;;21.70;54.60;;;;;;5215659;28;20052;-54
2021/11/16 02:42:55;;;;;;;4.70;3.88;;;21.70;54.60;;;;;;5196864;28;20059;-50
2021/11/16 02:45:27;;;;;;;6.22;4.10;;;21.70;54.70;;;;;;5231715;28;20047;-56
2021/11/16 02:48:11;;;;;;;5.93;4.20;;;21.70;54.70;;;;;;5223376;28;20040;-53
2021/11/16 02:50:53;;;;;;;4.72;3.63;;;21.70;54.70;;;;;;5227676;28;20421;-56
2021/11/16 02:53:27;;;;;;;4.43;3.42;;;21.70;54.60;;;;;;5226777;28;20405;-56
2021/11/16 02:55:59;;;;;;;6.70;4.10;;;21.70;54.70;;;;;;5227004;28;20156;-48
2021/11/16 02:58:32;;;;;;;5.28;3.78;;;21.70;54.60;;;;;;5220753;28;20044;-54
2021/11/16 03:01:12;;;;;;;6.30;3.90;;;21.70;54.70;;;;;;5224044;28;20083;-54
2021/11/16 03:03:45;;;;;;;5.70;3.60;;;21.70;54.60;;;;;;5222641;28;21397;-54
2021/11/16 03:06:17;;;;;;;7.50;4.00;;;21.70;54.60;;;;;;5230542;28;20530;-57
2021/11/16 03:08:50;;;;;;;6.78;4.22;;;21.70;54.60;;;;;;5230232;28;20302;-50
2021/11/16 03:11:23;;;;;;;6.27;3.03;;;21.70;54.60;;;;;;5228752;28;20044;-55
2021/11/16 03:13:55;;;;;;;6.88;4.60;;;21.70;54.60;;;;;;5229113;28;20784;-51
2021/11/16 03:16:28;;;;;;;6.72;3.97;;;21.70;54.60;;;;;;5236190;28;20048;-50
2021/11/16 03:19:00;;;;;;;6.82;3.83;;;21.70;54.60;;;;;;5220913;28;20048;-54
2021/11/16 03:21:33;;;;;;;4.90;3.92;;;21.70;54.60;;;;;;5221361;28;20055;-56
2021/11/16 03:24:05;;;;;;;7.10;3.93;;;21.70;54.60;;;;;;5231913;28;20058;-53
2021/11/16 03:26:38;;;;;;;7.72;3.70;;;21.70;54.60;;;;;;5233090;28;21684;-53
2021/11/16 03:29:12;;;;;;;8.23;4.07;;;21.70;54.60;;;;;;5225631;28;20051;-52
2021/11/16 03:31:52;;;;;;;9.57;4.82;;;21.70;54.70;;;;;;5229857;28;20051;-51
2021/11/16 03:34:27;;;;;;;6.20;3.78;;;21.70;54.70;;;;;;5230623;28;20040;-53
2021/11/16 03:36:59;;;;;;;7.15;3.78;;;21.70;54.70;;;;;;5235022;28;20423;-50
2021/11/16 03:39:32;;;;;;;7.93;4.18;;;21.70;54.70;;;;;;5234957;28;20175;-49
2021/11/16 03:42:05;;;;;;;7.28;4.13;;;21.70;54.70;;;;;;5216910;28;20063;-55
2021/11/16 03:44:38;;;;;;;9.03;4.07;;;21.70;54.60;;;;;;5213333;28;20056;-60
2021/11/16 03:47:11;;;;;;;5.97;3.63;;;21.70;54.60;;;;;;5234621;28;20301;-50
2021/11/16 03:49:44;;;;;;;5.68;3.63;;;21.70;54.60;;;;;;5233024;28;20049;-51
2021/11/16 03:52:21;;;;;;;6.40;4.28;;;21.70;54.60;;;;;;5231392;28;20052;-53
2021/11/16 03:54:53;;;;;;;5.05;3.67;;;21.70;54.60;;;;;;5232532;28;20052;-54
2021/11/16 03:57:26;;;;;;;5.65;3.65;;;21.70;54.60;;;;;;5231899;28;20040;-57
2021/11/16 03:59:59;;;;;;;4.57;3.85;;;21.70;54.60;;;;;;5229830;28;20043;-59
2021/11/16 04:02:32;;;;;;;8.37;3.97;;;21.70;54.60;;;;;;5230429;28;20052;-52
2021/11/16 04:05:05;;;;;;;5.57;4.30;;;21.60;54.50;;;;;;5234243;28;20052;-55
2021/11/16 04:07:39;;;;;;;6.13;3.85;;;21.70;54.60;;;;;;5232982;28;20048;-53
2021/11/16 04:10:12;;;;;;;4.68;3.65;;;21.70;54.60;;;;;;5214689;28;20476;-51
2021/11/16 04:12:45;;;;;;;4.35;3.50;;;21.70;54.60;;;;;;5228923;28;20055;-56
2021/11/16 04:15:21;;;;;;;7.60;3.53;;;21.70;54.50;;;;;;5237231;28;20044;-55
2021/11/16 04:17:57;;;;;;;4.70;3.58;;;21.70;54.50;;;;;;5234007;28;20051;-53
2021/11/16 04:20:32;;;;;;;5.88;4.28;;;21.70;54.50;;;;;;5230881;28;20047;-54
2021/11/16 04:23:08;;;;;;;6.18;3.90;;;21.70;54.50;;;;;;5227093;28;20775;-56
2021/11/16 04:25:42;;;;;;;6.32;4.00;;;21.70;54.60;;;;;;5233607;28;20052;-50
2021/11/16 04:28:15;;;;;;;6.18;3.70;;;21.70;54.60;;;;;;5232288;28;20791;-50
2021/11/16 04:30:49;;;;;;;12.13;4.15;;;21.60;54.50;;;;;;5210446;28;20048;-51
2021/11/16 04:33:23;;;;;;;6.57;4.05;;;21.70;54.60;;;;;;5220312;28;20959;-48
2021/11/16 04:35:59;;;;;;;8.23;3.85;;;21.70;54.50;;;;;;5221825;28;20046;-57
2021/11/16 04:38:32;;;;;;;7.30;4.22;;;21.60;54.50;;;;;;5235010;28;20044;-55
2021/11/16 04:41:04;;;;;;;8.95;3.90;;;21.70;54.60;;;;;;5233162;28;20057;-58
2021/11/16 04:43:38;;;;;;;4.47;3.45;;;21.60;54.50;;;;;;5234862;28;20036;-53
2021/11/16 04:46:13;;;;;;;7.78;3.63;;;21.70;54.60;;;;;;5232935;28;20059;-55
2021/11/16 05:02:38;;;;;;;7.75;4.13;;;21.60;55.00;;;;;;5219416;28;20381;-52
2021/11/16 05:05:16;;;;;;;6.43;3.60;;;21.60;55.00;;;;;;5228828;28;20047;-53
2021/11/16 05:08:02;;;;;;;7.80;3.38;;;21.60;55.10;;;;;;5235200;28;20044;-54
2021/11/16 05:10:34;;;;;;;10.63;3.65;;;21.60;55.10;;;;;;5217011;28;20032;-54
2021/11/16 05:13:07;;;;;;;10.50;3.87;;;21.60;55.20;;;;;;5218113;28;20428;-56
2021/11/16 05:15:43;;;;;;;5.15;3.50;;;21.60;55.20;;;;;;5222619;28;20060;-51
2021/11/16 05:18:16;;;;;;;8.65;3.50;;;21.60;55.20;;;;;;5238191;28;20063;-54
2021/11/16 05:20:48;;;;;;;7.43;3.80;;;21.60;55.30;;;;;;5213935;28;20492;-57
2021/11/16 05:23:21;;;;;;;8.88;3.90;;;21.60;55.30;;;;;;5230882;28;20044;-52
2021/11/16 05:25:54;;;;;;;7.30;3.70;;;21.60;55.30;;;;;;5236591;28;20055;-55
2021/11/16 05:28:27;;;;;;;6.75;4.00;;;21.60;55.30;;;;;;5240332;28;20054;-52
2021/11/16 05:31:00;;;;;;;6.07;3.45;;;21.60;55.30;;;;;;5214348;28;20048;-54
2021/11/16 05:33:32;;;;;;;7.22;3.30;;;21.60;55.30;;;;;;5208377;28;20697;-49
2021/11/16 05:36:05;;;;;;;8.32;3.58;;;21.60;55.40;;;;;;5230067;28;20044;-59
2021/11/16 05:38:39;;;;;;;7.22;3.80;;;21.60;55.40;;;;;;5229480;28;26216;-56
2021/11/16 05:41:13;;;;;;;11.00;3.58;;;21.60;55.50;;;;;;5233279;28;20051;-54
2021/11/16 05:43:48;;;;;;;7.43;3.72;;;21.60;55.40;;;;;;5229727;28;20048;-52
2021/11/16 05:46:21;;;;;;;8.20;3.53;;;21.70;55.50;;;;;;5228032;28;20552;-54
2021/11/16 05:48:55;;;;;;;7.68;3.30;;;21.70;55.60;;;;;;5230307;28;20051;-59
2021/11/16 05:51:29;;;;;;;8.38;3.60;;;21.70;55.60;;;;;;5226768;28;20519;-59
2021/11/16 05:54:02;;;;;;;9.43;3.58;;;21.70;55.60;;;;;;5230556;28;20044;-59
2021/11/16 05:56:35;;;;;;;;;;;21.70;56.20;;;;;;5210798;28;20040;-55
2021/11/16 05:59:08;;;;;;;8.35;3.70;;;21.70;55.40;;;;;;5232817;28;24577;-52
2021/11/16 06:01:41;;;;;;;11.95;4.03;;;21.70;55.50;;;;;;5208532;28;20068;-58
2021/11/16 06:04:13;;;;;;;9.55;4.38;;;21.80;55.60;;;;;;5205275;28;20535;-52
2021/11/16 06:06:46;;;;;;;17.58;4.05;;;21.80;55.60;;;;;;5214871;28;20060;-51
2021/11/16 06:09:18;;;;;;;16.98;4.05;;;21.80;55.70;;;;;;5219099;28;20048;-52
2021/11/16 06:11:51;;;;;;;22.45;4.53;;;21.80;55.80;;;;;;5205172;28;20048;-55
2021/11/16 06:14:24;;;;;;;;;;;21.90;55.50;;;;;;5219834;28;20055;-53
2021/11/16 06:16:58;;;;;;;10.75;3.60;;;21.80;55.40;;;;;;5193472;28;19928;-56
2021/11/16 06:19:35;;;;;;;8.02;3.90;;;21.80;55.40;;;;;;5215942;28;20044;-57
2021/11/16 06:22:09;;;;;;;10.25;4.30;;;21.90;55.30;;;;;;5221313;28;20047;-55
2021/11/16 06:24:42;;;;;;;10.05;3.63;;;21.90;55.30;;;;;;5209300;28;21540;-55
2021/11/16 06:27:15;;;;;;;7.95;3.78;;;21.90;55.20;;;;;;5215838;28;20048;-56
2021/11/16 06:29:47;;;;;;;7.30;3.75;;;21.90;55.10;;;;;;5217708;28;20536;-57
2021/11/16 06:32:20;;;;;;;8.50;3.50;;;21.90;55.00;;;;;;5217877;28;21552;-54
2021/11/16 06:34:53;;;;;;;9.45;3.53;;;21.90;55.00;;;;;;5206209;28;20050;-57
2021/11/16 06:37:25;;;;;;;11.10;3.60;;;21.90;54.90;;;;;;5226624;28;20044;-51
2021/11/16 06:39:58;;;;;;;10.93;3.90;;;21.90;55.00;;;;;;5221538;28;20489;-55
2021/11/16 06:42:30;;;;;;;10.75;3.67;;;21.90;54.90;;;;;;5248834;28;20040;-51
2021/11/16 06:45:03;;;;;;;6.38;3.22;;;21.90;54.90;;;;;;5250593;28;20048;-47
2021/11/16 06:47:36;;;;;;;11.45;3.80;;;21.90;54.90;;;;;;5247921;28;20044;-57
2021/11/16 06:50:09;;;;;;;9.10;3.17;;;22.00;54.90;;;;;;5248979;28;20044;-54
2021/11/16 06:52:43;;;;;;;8.20;4.00;;;21.90;54.80;;;;;;5251790;28;20493;-52
2021/11/16 06:55:15;;;;;;;;;;;22.00;55.40;;;;;;5233915;28;20296;-53
2021/11/16 06:57:48;;;;;;;5.55;3.40;;;21.90;54.70;;;;;;5254417;28;19924;-53
2021/11/16 07:00:20;;;;;;;8.27;3.28;;;21.90;54.80;;;;;;5256949;28;20055;-51
2021/11/16 07:02:58;;;;;;;5.47;3.00;;;21.90;54.70;;;;;;5235331;28;20047;-51
2021/11/16 07:05:31;;;;;;;6.68;3.13;;;22.00;54.70;;;;;;5245152;28;20576;-52
2021/11/16 07:08:04;;;;;;;5.83;2.80;;;22.00;54.70;;;;;;5235687;28;20489;-53
2021/11/16 07:10:37;;;;;;;3.97;2.88;;;22.00;54.70;;;;;;5239461;28;20071;-56
2021/11/16 07:13:10;;;;;;;6.10;2.80;;;22.00;54.70;;;;;;5254361;28;20040;-53
2021/11/16 07:15:42;;;;;;;3.78;2.72;;;22.00;54.70;;;;;;5239246;28;20507;-50
2021/11/16 07:18:15;;;;;;;4.22;2.95;;;22.00;54.60;;;;;;5254317;28;20055;-49
2021/11/16 07:21:00;;;;;;;6.90;2.97;;;22.00;54.60;;;;;;5255767;28;20048;-52
2021/11/16 07:23:32;;;;;;;5.22;2.88;;;22.00;54.60;;;;;;5253632;28;20056;-48
2021/11/16 07:26:13;;;;;;;5.03;2.88;;;22.00;54.50;;;;;;5255894;28;20059;-50
2021/11/16 07:28:49;;;;;;;5.70;2.50;;;22.00;54.50;;;;;;5255820;28;20611;-52
2021/11/16 07:31:22;;;;;;;7.05;3.03;;;22.00;54.50;;;;;;5254981;28;20059;-54
2021/11/16 07:33:59;;;;;;;;;;;22.00;54.50;;;;;;5256595;28;20284;-56
2021/11/16 07:36:31;;;;;;;5.00;3.00;;;22.00;54.50;;;;;;5255755;28;19928;-55
2021/11/16 07:39:05;;;;;;;4.40;2.90;;;22.00;54.50;;;;;;5257743;28;20048;-59
2021/11/16 07:41:38;;;;;;;4.60;2.85;;;22.00;54.50;;;;;;5253439;28;20048;-51
2021/11/16 07:44:13;;;;;;;5.00;3.10;;;22.00;54.40;;;;;;5258525;28;20062;-52
2021/11/16 07:46:53;;;;;;;3.75;2.50;;;22.00;54.40;;;;;;5256673;28;20048;-51
2021/11/16 07:49:26;;;;;;;6.85;2.60;;;22.00;54.30;;;;;;5232286;28;20044;-57
2021/11/16 07:51:59;;;;;;;4.45;2.88;;;22.00;54.30;;;;;;5255419;28;20032;-51
2021/11/16 07:54:31;;;;;;;4.43;2.97;;;22.00;54.30;;;;;;5241628;28;20036;-53
2021/11/16 07:57:05;;;;;;;4.45;2.60;;;22.00;54.30;;;;;;5258614;28;20308;-52
2021/11/16 07:59:37;;;;;;;4.35;2.70;;;22.00;54.30;;;;;;5255421;28;20412;-49
2021/11/16 08:02:21;;;;;;;4.20;2.72;;;22.10;54.30;;;;;;5258920;28;20043;-59
2021/11/16 08:05:08;;;;;;;5.88;2.45;;;22.10;54.30;;;;;;5240952;28;20043;-53
2021/11/16 08:07:58;;;;;;;6.57;2.60;;;22.10;54.30;;;;;;5239308;28;20654;-50
2021/11/16 08:10:32;;;;;;;8.95;2.90;;;22.00;54.20;;;;;;5243686;28;20381;-54
2021/11/16 08:13:16;;;;;;;4.72;2.65;;;22.10;54.30;;;;;;5252812;28;20040;-50
2021/11/16 08:15:48;;;;;;;3.47;2.53;;;22.10;54.30;;;;;;5252730;28;20044;-51
2021/11/16 08:18:20;;;;;;;6.38;2.60;;;22.10;54.20;;;;;;5253885;28;20040;-53
2021/11/16 08:21:01;;;;;;;4.65;2.40;;;22.10;54.20;;;;;;5252286;28;20059;-53
2021/11/16 08:23:33;;;;;;;3.85;2.67;;;22.10;54.20;;;;;;5222359;28;20203;-51
2021/11/16 08:26:06;;;;;;;6.00;3.05;;;22.10;54.20;;;;;;5252660;28;20032;-55
2021/11/16 08:28:38;;;;;;;3.53;2.38;;;22.10;54.20;;;;;;5255444;28;20559;-49
2021/11/16 08:31:12;;;;;;;6.73;3.10;;;22.10;54.20;;;;;;5253651;28;20040;-54
2021/11/16 08:33:46;;;;;;;3.65;2.28;;;22.10;54.20;;;;;;5246452;28;20040;-51
2021/11/16 08:36:27;;;;;;;5.00;2.60;;;22.10;54.10;;;;;;5252270;28;20792;-55
2021/11/16 08:39:00;;;;;;;2.70;2.20;;;22.10;54.10;;;;;;5253607;28;20051;-56
2021/11/16 08:41:32;;;;;;;4.35;2.40;;;22.10;54.40;;;;;;5233582;28;20044;-50
2021/11/16 08:44:13;;;;;;;3.42;2.50;;;22.10;54.10;;;;;;5216042;28;20428;-49
2021/11/16 08:46:48;;;;;;;4.38;2.05;;;22.10;54.10;;;;;;5249861;28;20059;-55
2021/11/16 08:49:24;;;;;;;2.40;2.10;;;22.10;54.10;;;;;;5241304;28;20115;-59
2021/11/16 08:52:01;;;;;;;3.65;2.10;;;22.10;54.10;;;;;;5251480;28;20528;-51
2021/11/16 08:54:36;;;;;;;4.22;2.55;;;22.10;54.10;;;;;;5249563;28;20036;-56
2021/11/16 08:57:19;;;;;;;3.67;2.40;;;22.10;54.10;;;;;;5250941;28;20363;-55
2021/11/16 08:59:53;;;;;;;3.22;2.17;;;22.10;54.00;;;;;;5248939;28;20040;-56
2021/11/16 09:02:28;;;;;;;4.40;2.20;;;22.10;54.10;;;;;;5248937;28;20048;-50
2021/11/16 09:05:13;;;;;;;3.33;2.20;;;22.10;54.00;;;;;;5231660;28;20056;-60
2021/11/16 09:07:50;;;;;;;3.25;2.05;;;22.10;54.00;;;;;;5246572;28;20043;-48
2021/11/16 09:10:31;;;;;;;5.82;2.65;;;22.10;54.00;;;;;;5227289;28;20059;-50
2021/11/16 09:13:06;;;;;;;3.58;2.00;;;22.10;54.00;;;;;;5250288;28;20523;-51
2021/11/16 09:15:43;;;;;;;3.30;2.10;;;22.10;54.00;;;;;;5250502;28;20070;-50
2021/11/16 09:18:22;;;;;;;3.75;1.98;;;22.10;54.00;;;;;;5251548;28;20040;-52
2021/11/16 09:21:13;;;;;;;2.35;1.80;;;22.10;54.00;;;;;;5251714;28;20048;-55
2021/11/16 09:24:13;;;;;;;6.65;2.10;;;22.10;54.00;;;;;;5248860;28;20504;-51
2021/11/16 09:26:58;;;;;;;2.83;2.00;;;22.10;54.00;;;;;;5252594;28;20040;-48
2021/11/16 09:29:31;;;;;;;3.03;2.10;;;22.10;54.00;;;;;;5249361;28;20048;-48
2021/11/16 09:32:10;;;;;;;3.47;2.25;;;22.10;54.00;;;;;;5228205;28;20043;-52
2021/11/16 09:34:54;;;;;;;2.40;2.00;;;22.10;53.90;;;;;;5248901;28;20044;-54
2021/11/16 09:37:27;;;;;;;4.72;2.28;;;22.10;53.90;;;;;;5250907;28;20734;-58
2021/11/16 09:40:03;;;;;;;2.67;2.08;;;22.10;53.90;;;;;;5245633;28;20048;-52
2021/11/16 09:42:39;;;;;;;2.20;1.77;;;22.10;53.90;;;;;;5245542;28;20052;-52
2021/11/16 09:45:19;;;;;;;3.03;2.08;;;22.10;53.90;;;;;;5245226;28;20063;-54
2021/11/16 09:47:52;;;;;;;2.03;1.80;;;22.20;53.90;;;;;;5248463;28;20048;-52
2021/11/16 09:50:26;;;;;;;4.20;2.00;;;22.20;53.90;;;;;;5247722;28;20040;-52
2021/11/16 09:53:03;;;;;;;3.55;2.13;;;22.10;53.60;;;;;;5250664;28;20048;-52
2021/11/16 09:55:37;;;;;;;3.15;2.08;;;22.10;53.90;;;;;;5247212;28;20044;-53
2021/11/16 09:58:23;;;;;;;2.95;2.22;;;22.20;53.90;;;;;;5249944;28;20044;-48
2021/11/16 10:00:55;;;;;;;2.30;1.63;;;22.20;53.90;;;;;;5212485;28;20540;-48
2021/11/16 10:03:28;;;;;;;2.00;1.75;;;22.20;53.90;;;;;;5247925;28;20047;-50
2021/11/16 10:06:01;;;;;;;2.47;1.70;;;22.10;53.80;;;;;;5248712;28;20055;-53
2021/11/16 10:08:33;;;;;;;2.33;2.10;;;22.20;53.90;;;;;;5249747;28;20051;-50
2021/11/16 10:11:06;;;;;;;4.27;2.07;;;22.20;53.90;;;;;;5250245;28;20147;-52
2021/11/16 10:13:38;;;;;;;2.03;1.60;;;22.20;53.90;;;;;;5247048;28;20301;-53
2021/11/16 10:16:11;;;;;;;2.65;1.90;;;22.10;53.80;;;;;;5251099;28;20048;-51
2021/11/16 10:18:44;;;;;;;2.05;1.80;;;22.20;54.50;;;;;;5241075;28;20059;-55
2021/11/16 10:21:17;;;;;;;2.40;1.75;;;22.20;53.80;;;;;;5247791;28;20591;-53
2021/11/16 10:23:53;;;;;;;;;;;22.20;53.80;;;;;;5251037;28;20048;-50
2021/11/16 10:26:34;;;;;;;2.42;1.90;;;22.10;53.80;;;;;;5249339;28;19932;-49
2021/11/16 10:29:17;;;;;;;3.40;1.98;;;22.20;53.90;;;;;;5248160;28;20394;-53
2021/11/16 10:31:49;;;;;;;2.55;1.92;;;22.20;53.90;;;;;;5247021;28;20044;-55
2021/11/16 10:34:48;;;;;;;2.17;1.97;;;22.20;53.90;;;;;;5225254;28;20485;-54
2021/11/16 10:37:21;;;;;;;2.13;1.75;;;22.20;53.80;;;;;;5245695;28;20282;-59
2021/11/16 10:40:11;;;;;;;2.63;2.00;;;22.20;53.90;;;;;;5247188;28;20871;-51
2021/11/16 10:42:46;;;;;;;3.58;1.70;;;22.20;53.80;;;;;;5249144;28;20059;-53
2021/11/16 10:45:23;;;;;;;2.78;1.70;;;22.20;53.80;;;;;;5247144;28;20051;-54
2021/11/16 10:48:01;;;;;;;1.70;1.60;;;22.20;53.80;;;;;;5249797;28;20055;-54
2021/11/16 10:50:35;;;;;;;1.92;1.58;;;22.20;53.80;;;;;;5250856;28;20429;-52
2021/11/16 10:53:14;;;;;;;2.40;1.65;;;22.20;53.80;;;;;;5232487;28;20044;-50
2021/11/16 10:55:59;;;;;;;2.00;1.60;;;22.20;53.80;;;;;;5246241;28;20040;-51
2021/11/16 10:58:40;;;;;;;2.05;1.85;;;22.20;53.70;;;;;;5232335;28;20496;-50
2021/11/16 11:01:18;;;;;;;1.90;1.67;;;22.20;53.70;;;;;;5252738;28;20043;-55
2021/11/16 11:03:54;;;;;;;2.65;1.80;;;22.20;53.70;;;;;;5252877;28;20133;-55
2021/11/16 11:06:35;;;;;;;2.20;1.80;;;22.20;53.70;;;;;;5249473;28;20048;-59
2021/11/16 11:09:08;;;;;;;1.95;1.60;;;22.20;53.70;;;;;;5250520;28;20055;-53
2021/11/16 11:11:43;;;;;;;2.47;1.85;;;22.20;53.70;;;;;;5253812;28;20040;-51
2021/11/16 11:14:18;;;;;;;1.83;1.50;;;22.20;53.70;;;;;;5252683;28;20040;-48
2021/11/16 11:16:59;;;;;;;1.90;1.40;;;22.20;53.70;;;;;;5252372;28;20567;-53
2021/11/16 11:19:35;;;;;;;2.13;1.92;;;22.20;53.70;;;;;;5248591;28;20519;-51
2021/11/16 11:22:26;;;;;;;2.60;1.75;;;22.20;53.70;;;;;;5245960;28;25387;-51
2021/11/16 11:27:55;;;;;;;2.13;1.50;;;22.20;53.70;;;;;;5229194;28;20044;-54
2021/11/16 11:30:32;;;;;;;1.60;1.48;;;22.20;53.70;;;;;;5247569;28;20267;-54
2021/11/16 11:33:05;;;;;;;2.75;1.55;;;22.20;53.70;;;;;;5241449;28;20036;-56
2021/11/16 11:35:37;;;;;;;2.20;1.98;;;22.20;53.70;;;;;;5244646;28;20044;-56
2021/11/16 11:38:12;;;;;;;1.67;1.45;;;22.20;53.70;;;;;;5244857;28;20044;-50
2021/11/16 11:40:45;;;;;;;1.73;1.35;;;22.20;53.70;;;;;;5247715;28;20044;-54
2021/11/16 11:43:22;;;;;;;2.58;1.88;;;22.20;53.70;;;;;;5249504;28;20447;-55
2021/11/16 11:45:54;;;;;;;1.88;1.50;;;22.20;53.60;;;;;;5250333;28;20044;-51
2021/11/16 11:48:27;;;;;;;2.08;1.73;;;22.20;53.60;;;;;;5255435;28;20131;-47
2021/11/16 11:51:11;;;;;;;3.53;1.73;;;22.20;53.60;;;;;;5251688;28;20044;-56
2021/11/16 11:53:43;;;;;;;2.25;1.65;;;22.20;53.60;;;;;;5253975;28;20048;-52
2021/11/16 11:56:16;;;;;;;1.80;1.40;;;22.20;53.60;;;;;;5253167;28;20055;-53
2021/11/16 11:58:49;;;;;;;2.00;1.48;;;22.20;53.60;;;;;;5255296;28;20697;-52
2021/11/16 12:01:28;;;;;;;2.33;1.73;;;22.20;53.60;;;;;;5253820;28;20301;-51
2021/11/16 12:04:01;;;;;;;1.65;1.45;;;22.20;53.60;;;;;;5244222;28;20048;-55
2021/11/16 12:06:33;;;;;;;1.70;1.45;;;22.20;53.60;;;;;;5251275;28;20047;-49
2021/11/16 12:09:08;;;;;;;2.28;1.67;;;22.20;53.60;;;;;;5252673;28;20063;-54
2021/11/16 12:11:40;;;;;;;1.55;1.40;;;22.20;53.60;;;;;;5250847;28;20055;-50
2021/11/16 12:14:18;;;;;;;;;;;22.20;53.60;;;;;;5250996;28;20127;-53
2021/11/16 12:16:56;;;;;;;2.67;1.70;;;22.20;53.60;;;;;;5250455;28;19924;-56
2021/11/16 12:19:45;;;;;;;2.03;1.70;;;22.20;53.70;;;;;;5253170;28;20044;-53
2021/11/16 12:22:24;;;;;;;1.90;1.55;;;22.20;53.60;;;;;;5234611;28;20272;-54
2021/11/16 12:25:18;;;;;;;2.50;1.80;;;22.20;53.60;;;;;;5256214;28;20058;-54
2021/11/16 12:27:50;;;;;;;3.95;1.60;;;22.20;53.60;;;;;;5242536;28;20453;-54
2021/11/16 12:30:47;;;;;;;2.15;1.90;;;22.20;53.60;;;;;;5223832;28;20531;-56
2021/11/16 12:33:44;;;;;;;1.73;1.42;;;22.20;53.60;;;;;;5219626;28;20052;-49
2021/11/16 12:36:29;;;;;;;1.90;1.70;;;22.20;53.60;;;;;;5225841;28;20378;-51
2021/11/16 12:39:20;;;;;;;4.07;1.60;;;22.20;53.70;;;;;;5229393;28;20044;-59
2021/11/16 12:42:06;;;;;;;2.10;1.67;;;22.20;53.70;;;;;;5223198;28;20105;-55
2021/11/16 12:44:46;;;;;;;2.85;1.90;;;22.20;53.70;;;;;;5224778;28;22145;-52
2021/11/16 12:47:18;;;;;;;4.70;1.60;;;22.20;53.70;;;;;;5230358;28;20048;-51
2021/11/16 12:50:15;;;;;;;1.90;1.52;;;22.30;53.80;;;;;;5233356;28;20047;-50
2021/11/16 12:52:53;;;;;;;1.88;1.70;;;22.20;53.70;;;;;;5233167;28;20049;-53
2021/11/16 12:55:29;;;;;;;2.35;1.75;;;22.30;53.80;;;;;;5228095;28;20400;-56
2021/11/16 12:58:22;;;;;;;2.65;1.70;;;22.30;53.80;;;;;;5231064;28;20056;-49
2021/11/16 13:00:55;;;;;;;2.42;1.63;;;22.20;53.70;;;;;;5233388;28;20050;-54
2021/11/16 13:03:50;;;;;;;2.50;1.73;;;22.20;53.70;;;;;;5226545;28;20044;-54
2021/11/16 13:06:23;;;;;;;2.95;1.40;;;22.20;53.80;;;;;;5230023;28;20055;-57
2021/11/16 13:08:56;;;;;;;2.88;1.58;;;22.20;53.70;;;;;;5226280;28;20046;-54
2021/11/16 13:11:49;;;;;;;7.38;4.70;;;22.20;53.70;;;;;;5222589;28;20354;-53
2021/11/16 13:14:39;;;;;;;12.02;7.30;;;22.20;52.00;;;;;;5204942;28;20301;-54
2021/11/16 13:18:11;;;;;;;8.27;6.05;;;22.10;49.80;;;;;;5195833;28;20048;-58
2021/11/16 13:20:58;;;;;;;12.73;4.50;;;22.00;49.90;;;;;;5146738;28;20132;-58
2021/11/16 13:23:33;;;;;;;9.52;4.00;;;22.00;51.30;;;;;;5184580;28;20088;-60
2021/11/16 13:26:07;;;;;;;9.68;3.85;;;22.00;51.70;;;;;;5213457;28;20048;-53
2021/11/16 13:31:13;;;;;;;9.90;3.47;;;22.10;52.40;;;;;;5212297;28;20045;-54
2021/11/16 13:33:57;;;;;;;22.63;3.45;;;22.10;52.80;;;;;;5209335;28;21258;-56
2021/11/16 13:36:29;;;;;;;10.77;3.20;;;22.20;53.20;;;;;;5206547;28;20372;-49
2021/11/16 13:39:17;;;;;;;8.07;4.00;;;22.10;53.50;;;;;;5206853;28;20054;-56
2021/11/16 13:41:55;;;;;;;11.82;5.18;;;22.20;53.10;;;;;;5207569;28;20056;-58
2021/11/16 13:44:32;;;;;;;13.63;4.70;;;22.20;52.60;;;;;;5209199;28;20058;-51
2021/11/16 13:47:32;;;;;;;11.18;4.57;;;22.20;52.00;;;;;;5207469;28;20048;-59
2021/11/16 13:50:27;;;;;;;14.98;4.28;;;22.20;52.40;;;;;;5207115;28;20211;-51
2021/11/16 13:53:07;;;;;;;8.90;3.40;;;22.20;52.80;;;;;;5200095;28;20040;-53